Terminal Aerodrome Forecast
Issued by NWS Bismarck, ND

Home | Current Version | Previous Version | Text Only | Print | Product List | Glossary On
Versions: 1 2 3 4 5 6 7 8 9 10 11 12 13 14 15 16 17 18 19 20 21 22 23 24 25 26 27
000
FTUS43 KBIS 242324
TAFBIS
TAF
KBIS 242324Z 2500/2524 20011G18KT P6SM FEW050
     FM250500 26010KT P6SM BKN025
     FM250700 27015KT P6SM VCSH BKN015
     FM250900 30022G31KT P6SM -SHRA OVC010
     FM251200 31024G34KT P6SM BKN015
     FM251500 31024G34KT P6SM SCT040=

USA.gov is the U.S. government's official web portal to all federal, state and local government web resources and services.